sensor_id;sensor_type;location;lat;lon;timestamp;P1;durP1;ratioP1;P2;durP2;ratioP2
33148;SDS011;19506;51.040;3.856;2022-08-21T00:02:14;11.38;;;3.22;;
33148;SDS011;19506;51.040;3.856;2022-08-21T00:04:41;9.43;;;3.08;;
33148;SDS011;19506;51.040;3.856;2022-08-21T00:07:07;5.50;;;2.40;;
33148;SDS011;19506;51.040;3.856;2022-08-21T00:09:33;8.40;;;2.60;;
33148;SDS011;19506;51.040;3.856;2022-08-21T00:11:58;6.55;;;3.28;;
33148;SDS011;19506;51.040;3.856;2022-08-21T00:14:24;9.43;;;2.97;;
33148;SDS011;19506;51.040;3.856;2022-08-21T00:16:50;5.07;;;2.55;;
33148;SDS011;19506;51.040;3.856;2022-08-21T00:19:15;6.55;;;2.78;;
33148;SDS011;19506;51.040;3.856;2022-08-21T00:21:41;6.85;;;2.60;;
33148;SDS011;19506;51.040;3.856;2022-08-21T00:24:07;6.40;;;2.58;;
33148;SDS011;19506;51.040;3.856;2022-08-21T00:26:32;6.40;;;3.10;;
33148;SDS011;19506;51.040;3.856;2022-08-21T00:28:58;5.20;;;2.40;;
33148;SDS011;19506;51.040;3.856;2022-08-21T00:31:24;7.30;;;2.80;;
33148;SDS011;19506;51.040;3.856;2022-08-21T00:33:50;7.82;;;2.60;;
33148;SDS011;19506;51.040;3.856;2022-08-21T00:36:15;9.18;;;2.28;;
33148;SDS011;19506;51.040;3.856;2022-08-21T00:38:41;8.63;;;2.80;;
33148;SDS011;19506;51.040;3.856;2022-08-21T00:41:08;6.32;;;2.53;;
33148;SDS011;19506;51.040;3.856;2022-08-21T00:43:36;4.90;;;2.25;;
33148;SDS011;19506;51.040;3.856;2022-08-21T00:46:03;5.55;;;2.55;;
33148;SDS011;19506;51.040;3.856;2022-08-21T00:48:30;5.90;;;2.13;;
33148;SDS011;19506;51.040;3.856;2022-08-21T00:51:00;8.20;;;2.15;;
33148;SDS011;19506;51.040;3.856;2022-08-21T00:53:29;15.30;;;2.63;;
33148;SDS011;19506;51.040;3.856;2022-08-21T00:55:56;6.28;;;2.53;;
33148;SDS011;19506;51.040;3.856;2022-08-21T00:58:22;3.95;;;2.22;;
33148;SDS011;19506;51.040;3.856;2022-08-21T01:00:49;4.65;;;2.00;;
33148;SDS011;19506;51.040;3.856;2022-08-21T01:03:17;6.18;;;2.53;;
33148;SDS011;19506;51.040;3.856;2022-08-21T01:05:46;5.57;;;2.35;;
33148;SDS011;19506;51.040;3.856;2022-08-21T01:08:12;5.40;;;2.80;;
33148;SDS011;19506;51.040;3.856;2022-08-21T01:10:39;6.40;;;2.00;;
33148;SDS011;19506;51.040;3.856;2022-08-21T01:13:06;7.88;;;2.38;;
33148;SDS011;19506;51.040;3.856;2022-08-21T01:15:36;8.55;;;2.50;;
33148;SDS011;19506;51.040;3.856;2022-08-21T01:18:05;3.83;;;1.77;;
33148;SDS011;19506;51.040;3.856;2022-08-21T01:20:34;4.75;;;2.15;;
33148;SDS011;19506;51.040;3.856;2022-08-21T01:23:01;6.40;;;2.63;;
33148;SDS011;19506;51.040;3.856;2022-08-21T01:25:28;4.53;;;1.90;;
33148;SDS011;19506;51.040;3.856;2022-08-21T01:27:54;10.90;;;2.45;;
33148;SDS011;19506;51.040;3.856;2022-08-21T01:30:22;3.88;;;2.20;;
33148;SDS011;19506;51.040;3.856;2022-08-21T01:32:51;7.03;;;2.75;;
33148;SDS011;19506;51.040;3.856;2022-08-21T01:35:18;10.15;;;2.45;;
33148;SDS011;19506;51.040;3.856;2022-08-21T01:37:45;7.00;;;2.03;;
33148;SDS011;19506;51.040;3.856;2022-08-21T01:40:12;8.35;;;2.38;;
33148;SDS011;19506;51.040;3.856;2022-08-21T01:42:40;4.75;;;2.45;;
33148;SDS011;19506;51.040;3.856;2022-08-21T01:45:07;5.35;;;2.10;;
33148;SDS011;19506;51.040;3.856;2022-08-21T01:47:33;5.63;;;2.50;;
33148;SDS011;19506;51.040;3.856;2022-08-21T01:50:00;7.70;;;2.70;;
33148;SDS011;19506;51.040;3.856;2022-08-21T01:52:28;5.72;;;1.90;;
33148;SDS011;19506;51.040;3.856;2022-08-21T01:54:54;5.00;;;1.70;;
33148;SDS011;19506;51.040;3.856;2022-08-21T01:57:20;5.00;;;2.30;;
33148;SDS011;19506;51.040;3.856;2022-08-21T01:59:45;4.72;;;1.88;;
33148;SDS011;19506;51.040;3.856;2022-08-21T02:02:11;5.65;;;2.10;;
33148;SDS011;19506;51.040;3.856;2022-08-21T02:04:37;5.15;;;2.30;;
33148;SDS011;19506;51.040;3.856;2022-08-21T02:07:03;4.60;;;2.00;;
33148;SDS011;19506;51.040;3.856;2022-08-21T02:09:29;8.32;;;3.85;;
33148;SDS011;19506;51.040;3.856;2022-08-21T02:11:55;4.57;;;2.03;;
33148;SDS011;19506;51.040;3.856;2022-08-21T02:14:20;7.10;;;2.13;;
33148;SDS011;19506;51.040;3.856;2022-08-21T02:16:46;4.57;;;2.40;;
33148;SDS011;19506;51.040;3.856;2022-08-21T02:19:12;11.45;;;2.35;;
33148;SDS011;19506;51.040;3.856;2022-08-21T02:21:39;6.13;;;2.33;;
33148;SDS011;19506;51.040;3.856;2022-08-21T02:24:05;7.57;;;3.20;;
33148;SDS011;19506;51.040;3.856;2022-08-21T02:26:31;5.78;;;2.60;;
33148;SDS011;19506;51.040;3.856;2022-08-21T02:28:57;4.57;;;2.30;;
33148;SDS011;19506;51.040;3.856;2022-08-21T02:31:23;5.45;;;2.05;;
33148;SDS011;19506;51.040;3.856;2022-08-21T02:33:49;5.43;;;2.10;;
33148;SDS011;19506;51.040;3.856;2022-08-21T02:36:15;6.90;;;2.33;;
33148;SDS011;19506;51.040;3.856;2022-08-21T02:38:41;8.35;;;2.28;;
33148;SDS011;19506;51.040;3.856;2022-08-21T02:41:15;6.38;;;2.03;;
33148;SDS011;19506;51.040;3.856;2022-08-21T02:43:42;11.65;;;2.20;;
33148;SDS011;19506;51.040;3.856;2022-08-21T02:46:10;4.47;;;2.08;;
33148;SDS011;19506;51.040;3.856;2022-08-21T02:48:37;3.80;;;1.38;;
33148;SDS011;19506;51.040;3.856;2022-08-21T02:51:06;4.35;;;1.73;;
33148;SDS011;19506;51.040;3.856;2022-08-21T02:53:34;4.32;;;1.90;;
33148;SDS011;19506;51.040;3.856;2022-08-21T02:56:01;8.60;;;2.13;;
33148;SDS011;19506;51.040;3.856;2022-08-21T02:58:30;4.57;;;2.55;;
33148;SDS011;19506;51.040;3.856;2022-08-21T03:00:59;3.58;;;1.85;;
33148;SDS011;19506;51.040;3.856;2022-08-21T03:03:25;5.47;;;2.05;;
33148;SDS011;19506;51.040;3.856;2022-08-21T03:05:52;6.25;;;2.15;;
33148;SDS011;19506;51.040;3.856;2022-08-21T03:08:18;7.88;;;2.13;;
33148;SDS011;19506;51.040;3.856;2022-08-21T03:10:45;9.32;;;2.42;;
33148;SDS011;19506;51.040;3.856;2022-08-21T03:13:13;6.25;;;1.92;;
33148;SDS011;19506;51.040;3.856;2022-08-21T03:15:39;6.25;;;2.13;;
33148;SDS011;19506;51.040;3.856;2022-08-21T03:18:05;4.65;;;2.28;;
33148;SDS011;19506;51.040;3.856;2022-08-21T03:20:32;4.18;;;1.58;;
33148;SDS011;19506;51.040;3.856;2022-08-21T03:22:59;4.82;;;2.05;;
33148;SDS011;19506;51.040;3.856;2022-08-21T03:25:26;3.70;;;1.67;;
33148;SDS011;19506;51.040;3.856;2022-08-21T03:27:52;8.13;;;2.38;;
33148;SDS011;19506;51.040;3.856;2022-08-21T03:30:19;9.05;;;2.08;;
33148;SDS011;19506;51.040;3.856;2022-08-21T03:32:48;10.25;;;2.08;;
33148;SDS011;19506;51.040;3.856;2022-08-21T03:35:16;11.90;;;1.90;;
33148;SDS011;19506;51.040;3.856;2022-08-21T03:37:42;9.45;;;1.95;;
33148;SDS011;19506;51.040;3.856;2022-08-21T03:40:09;5.10;;;2.20;;
33148;SDS011;19506;51.040;3.856;2022-08-21T03:42:36;5.95;;;1.70;;
33148;SDS011;19506;51.040;3.856;2022-08-21T03:45:03;6.93;;;1.90;;
33148;SDS011;19506;51.040;3.856;2022-08-21T03:47:29;5.38;;;1.95;;
33148;SDS011;19506;51.040;3.856;2022-08-21T03:49:55;3.47;;;1.52;;
33148;SDS011;19506;51.040;3.856;2022-08-21T03:52:21;6.47;;;2.30;;
33148;SDS011;19506;51.040;3.856;2022-08-21T03:54:47;7.43;;;1.80;;
33148;SDS011;19506;51.040;3.856;2022-08-21T03:57:13;7.22;;;2.28;;
33148;SDS011;19506;51.040;3.856;2022-08-21T03:59:39;4.35;;;1.70;;
33148;SDS011;19506;51.040;3.856;2022-08-21T04:02:05;5.72;;;2.03;;
33148;SDS011;19506;51.040;3.856;2022-08-21T04:04:32;10.50;;;2.40;;
33148;SDS011;19506;51.040;3.856;2022-08-21T04:06:58;7.80;;;2.10;;
33148;SDS011;19506;51.040;3.856;2022-08-21T04:09:24;6.03;;;1.90;;
33148;SDS011;19506;51.040;3.856;2022-08-21T04:11:51;7.72;;;2.03;;
33148;SDS011;19506;51.040;3.856;2022-08-21T04:14:16;9.13;;;2.97;;
33148;SDS011;19506;51.040;3.856;2022-08-21T04:16:43;13.38;;;2.30;;
33148;SDS011;19506;51.040;3.856;2022-08-21T04:19:09;7.10;;;2.50;;
33148;SDS011;19506;51.040;3.856;2022-08-21T04:21:37;10.32;;;2.25;;
33148;SDS011;19506;51.040;3.856;2022-08-21T04:24:03;5.93;;;2.40;;
33148;SDS011;19506;51.040;3.856;2022-08-21T04:26:30;7.93;;;2.25;;
33148;SDS011;19506;51.040;3.856;2022-08-21T04:28:56;11.40;;;2.10;;
33148;SDS011;19506;51.040;3.856;2022-08-21T04:31:23;7.50;;;2.05;;
33148;SDS011;19506;51.040;3.856;2022-08-21T04:33:49;10.10;;;2.20;;
33148;SDS011;19506;51.040;3.856;2022-08-21T04:36:15;9.82;;;2.25;;
33148;SDS011;19506;51.040;3.856;2022-08-21T04:38:41;9.38;;;2.20;;
33148;SDS011;19506;51.040;3.856;2022-08-21T04:41:06;6.97;;;1.95;;
33148;SDS011;19506;51.040;3.856;2022-08-21T04:43:32;5.35;;;1.90;;
33148;SDS011;19506;51.040;3.856;2022-08-21T04:45:58;5.80;;;1.60;;
33148;SDS011;19506;51.040;3.856;2022-08-21T04:48:25;3.42;;;1.45;;
33148;SDS011;19506;51.040;3.856;2022-08-21T04:51:00;4.05;;;2.00;;
33148;SDS011;19506;51.040;3.856;2022-08-21T04:56:20;6.43;;;2.17;;
33148;SDS011;19506;51.040;3.856;2022-08-21T04:58:50;6.20;;;1.92;;
33148;SDS011;19506;51.040;3.856;2022-08-21T05:01:19;9.45;;;1.85;;
33148;SDS011;19506;51.040;3.856;2022-08-21T05:03:49;6.05;;;2.00;;
33148;SDS011;19506;51.040;3.856;2022-08-21T05:06:18;7.85;;;2.20;;
33148;SDS011;19506;51.040;3.856;2022-08-21T05:08:44;6.00;;;1.88;;
33148;SDS011;19506;51.040;3.856;2022-08-21T05:11:12;3.33;;;1.60;;
33148;SDS011;19506;51.040;3.856;2022-08-21T05:13:38;8.38;;;2.63;;
33148;SDS011;19506;51.040;3.856;2022-08-21T05:16:05;6.78;;;1.67;;
33148;SDS011;19506;51.040;3.856;2022-08-21T05:18:31;6.10;;;1.75;;
33148;SDS011;19506;51.040;3.856;2022-08-21T05:20:57;4.75;;;1.92;;
33148;SDS011;19506;51.040;3.856;2022-08-21T05:23:22;13.70;;;2.90;;
33148;SDS011;19506;51.040;3.856;2022-08-21T05:25:48;9.98;;;1.90;;
33148;SDS011;19506;51.040;3.856;2022-08-21T05:28:13;10.27;;;2.55;;
33148;SDS011;19506;51.040;3.856;2022-08-21T05:30:39;7.53;;;1.80;;
33148;SDS011;19506;51.040;3.856;2022-08-21T05:33:06;7.90;;;2.30;;
33148;SDS011;19506;51.040;3.856;2022-08-21T05:35:32;6.80;;;2.40;;
33148;SDS011;19506;51.040;3.856;2022-08-21T05:37:59;7.28;;;1.80;;
33148;SDS011;19506;51.040;3.856;2022-08-21T05:40:26;6.38;;;1.98;;
33148;SDS011;19506;51.040;3.856;2022-08-21T05:42:53;10.45;;;1.70;;
33148;SDS011;19506;51.040;3.856;2022-08-21T05:45:19;5.40;;;1.70;;
33148;SDS011;19506;51.040;3.856;2022-08-21T05:47:46;9.10;;;2.08;;
33148;SDS011;19506;51.040;3.856;2022-08-21T05:50:11;8.25;;;2.08;;
33148;SDS011;19506;51.040;3.856;2022-08-21T05:52:37;6.75;;;2.13;;
33148;SDS011;19506;51.040;3.856;2022-08-21T05:55:03;11.73;;;2.20;;
33148;SDS011;19506;51.040;3.856;2022-08-21T05:57:29;6.03;;;2.17;;
33148;SDS011;19506;51.040;3.856;2022-08-21T05:59:55;6.95;;;1.88;;
33148;SDS011;19506;51.040;3.856;2022-08-21T06:02:21;7.50;;;1.70;;
33148;SDS011;19506;51.040;3.856;2022-08-21T06:04:47;4.13;;;1.73;;
33148;SDS011;19506;51.040;3.856;2022-08-21T06:07:13;7.80;;;1.85;;
33148;SDS011;19506;51.040;3.856;2022-08-21T06:09:39;4.93;;;1.73;;
33148;SDS011;19506;51.040;3.856;2022-08-21T06:12:06;9.30;;;2.47;;
33148;SDS011;19506;51.040;3.856;2022-08-21T06:14:34;6.25;;;2.03;;
33148;SDS011;19506;51.040;3.856;2022-08-21T06:17:08;16.70;;;2.03;;
33148;SDS011;19506;51.040;3.856;2022-08-21T06:19:36;10.60;;;2.88;;
33148;SDS011;19506;51.040;3.856;2022-08-21T06:22:02;9.68;;;2.17;;
33148;SDS011;19506;51.040;3.856;2022-08-21T06:24:29;8.73;;;2.33;;
33148;SDS011;19506;51.040;3.856;2022-08-21T06:26:55;6.72;;;2.13;;
33148;SDS011;19506;51.040;3.856;2022-08-21T06:29:21;10.60;;;2.58;;
33148;SDS011;19506;51.040;3.856;2022-08-21T06:31:48;9.55;;;2.38;;
33148;SDS011;19506;51.040;3.856;2022-08-21T06:34:16;16.15;;;3.13;;
33148;SDS011;19506;51.040;3.856;2022-08-21T06:36:43;11.75;;;2.13;;
33148;SDS011;19506;51.040;3.856;2022-08-21T06:39:09;9.77;;;2.50;;
33148;SDS011;19506;51.040;3.856;2022-08-21T06:41:35;11.38;;;2.38;;
33148;SDS011;19506;51.040;3.856;2022-08-21T06:44:01;7.07;;;1.77;;
33148;SDS011;19506;51.040;3.856;2022-08-21T06:46:27;10.38;;;2.75;;
33148;SDS011;19506;51.040;3.856;2022-08-21T06:48:55;6.30;;;2.33;;
33148;SDS011;19506;51.040;3.856;2022-08-21T06:51:21;12.35;;;3.08;;
33148;SDS011;19506;51.040;3.856;2022-08-21T06:53:47;8.45;;;2.10;;
33148;SDS011;19506;51.040;3.856;2022-08-21T06:56:14;7.82;;;2.20;;
33148;SDS011;19506;51.040;3.856;2022-08-21T06:58:40;12.75;;;2.40;;
33148;SDS011;19506;51.040;3.856;2022-08-21T07:01:06;6.15;;;2.17;;
33148;SDS011;19506;51.040;3.856;2022-08-21T07:03:33;13.65;;;2.58;;
33148;SDS011;19506;51.040;3.856;2022-08-21T07:06:00;7.72;;;2.75;;
33148;SDS011;19506;51.040;3.856;2022-08-21T07:08:26;10.77;;;2.00;;
33148;SDS011;19506;51.040;3.856;2022-08-21T07:10:54;4.60;;;1.67;;
33148;SDS011;19506;51.040;3.856;2022-08-21T07:13:22;21.95;;;3.38;;
33148;SDS011;19506;51.040;3.856;2022-08-21T07:15:48;12.35;;;2.53;;
33148;SDS011;19506;51.040;3.856;2022-08-21T07:18:13;11.35;;;3.20;;
33148;SDS011;19506;51.040;3.856;2022-08-21T07:20:40;13.05;;;2.75;;
33148;SDS011;19506;51.040;3.856;2022-08-21T07:23:10;13.80;;;3.05;;
33148;SDS011;19506;51.040;3.856;2022-08-21T07:25:41;28.92;;;3.50;;
33148;SDS011;19506;51.040;3.856;2022-08-21T07:28:06;16.13;;;2.45;;
33148;SDS011;19506;51.040;3.856;2022-08-21T07:30:32;10.98;;;2.60;;
33148;SDS011;19506;51.040;3.856;2022-08-21T07:32:57;19.10;;;3.58;;
33148;SDS011;19506;51.040;3.856;2022-08-21T07:35:23;18.92;;;3.33;;
33148;SDS011;19506;51.040;3.856;2022-08-21T07:37:49;15.32;;;2.50;;
33148;SDS011;19506;51.040;3.856;2022-08-21T07:40:15;24.75;;;3.15;;
33148;SDS011;19506;51.040;3.856;2022-08-21T07:42:43;19.45;;;2.70;;
33148;SDS011;19506;51.040;3.856;2022-08-21T07:45:12;14.35;;;3.10;;
33148;SDS011;19506;51.040;3.856;2022-08-21T07:47:38;13.40;;;3.20;;
33148;SDS011;19506;51.040;3.856;2022-08-21T07:50:05;12.77;;;2.92;;
33148;SDS011;19506;51.040;3.856;2022-08-21T07:52:32;10.95;;;2.65;;
33148;SDS011;19506;51.040;3.856;2022-08-21T07:54:58;19.40;;;2.90;;
33148;SDS011;19506;51.040;3.856;2022-08-21T07:57:24;16.58;;;3.63;;
33148;SDS011;19506;51.040;3.856;2022-08-21T07:59:50;15.88;;;2.97;;
33148;SDS011;19506;51.040;3.856;2022-08-21T08:02:25;20.75;;;2.88;;
33148;SDS011;19506;51.040;3.856;2022-08-21T08:04:52;12.02;;;3.10;;
33148;SDS011;19506;51.040;3.856;2022-08-21T08:07:18;13.65;;;3.08;;
33148;SDS011;19506;51.040;3.856;2022-08-21T08:09:44;22.30;;;3.85;;
33148;SDS011;19506;51.040;3.856;2022-08-21T08:12:10;28.92;;;3.75;;
33148;SDS011;19506;51.040;3.856;2022-08-21T08:14:36;19.73;;;2.47;;
33148;SDS011;19506;51.040;3.856;2022-08-21T08:17:02;14.70;;;3.92;;
33148;SDS011;19506;51.040;3.856;2022-08-21T08:19:28;18.52;;;4.35;;
33148;SDS011;19506;51.040;3.856;2022-08-21T08:21:55;16.63;;;3.90;;
33148;SDS011;19506;51.040;3.856;2022-08-21T08:24:21;18.20;;;2.60;;
33148;SDS011;19506;51.040;3.856;2022-08-21T08:26:46;22.02;;;3.35;;
33148;SDS011;19506;51.040;3.856;2022-08-21T08:29:12;12.88;;;3.72;;
33148;SDS011;19506;51.040;3.856;2022-08-21T08:31:38;10.73;;;2.72;;
33148;SDS011;19506;51.040;3.856;2022-08-21T08:34:04;8.27;;;2.65;;
33148;SDS011;19506;51.040;3.856;2022-08-21T08:36:34;14.35;;;2.80;;
33148;SDS011;19506;51.040;3.856;2022-08-21T08:39:01;14.77;;;2.80;;
33148;SDS011;19506;51.040;3.856;2022-08-21T08:41:29;19.65;;;3.15;;
33148;SDS011;19506;51.040;3.856;2022-08-21T08:43:58;19.10;;;2.80;;
33148;SDS011;19506;51.040;3.856;2022-08-21T08:46:34;14.30;;;3.50;;
33148;SDS011;19506;51.040;3.856;2022-08-21T08:49:10;13.85;;;3.15;;
33148;SDS011;19506;51.040;3.856;2022-08-21T08:51:50;13.20;;;3.22;;
33148;SDS011;19506;51.040;3.856;2022-08-21T08:54:28;27.75;;;3.97;;
33148;SDS011;19506;51.040;3.856;2022-08-21T08:57:00;27.75;;;3.83;;
33148;SDS011;19506;51.040;3.856;2022-08-21T09:00:03;12.63;;;3.15;;
33148;SDS011;19506;51.040;3.856;2022-08-21T09:02:21;16.58;;;3.13;;
33148;SDS011;19506;51.040;3.856;2022-08-21T09:04:48;11.32;;;2.53;;
33148;SDS011;19506;51.040;3.856;2022-08-21T09:10:06;11.15;;;2.30;;
33148;SDS011;19506;51.040;3.856;2022-08-21T09:16:20;13.40;;;3.38;;
33148;SDS011;19506;51.040;3.856;2022-08-21T09:24:21;11.93;;;2.67;;
33148;SDS011;19506;51.040;3.856;2022-08-21T09:26:57;11.02;;;3.05;;
33148;SDS011;19506;51.040;3.856;2022-08-21T09:29:28;14.75;;;3.15;;
33148;SDS011;19506;51.040;3.856;2022-08-21T09:31:57;18.60;;;3.40;;
33148;SDS011;19506;51.040;3.856;2022-08-21T09:34:30;16.77;;;3.60;;
33148;SDS011;19506;51.040;3.856;2022-08-21T09:36:56;12.00;;;2.75;;
33148;SDS011;19506;51.040;3.856;2022-08-21T09:44:29;9.60;;;2.70;;
33148;SDS011;19506;51.040;3.856;2022-08-21T09:46:56;11.50;;;3.20;;
33148;SDS011;19506;51.040;3.856;2022-08-21T09:49:32;12.20;;;3.13;;
33148;SDS011;19506;51.040;3.856;2022-08-21T09:52:01;12.80;;;2.97;;
33148;SDS011;19506;51.040;3.856;2022-08-21T09:54:30;18.95;;;3.63;;
33148;SDS011;19506;51.040;3.856;2022-08-21T09:59:53;17.20;;;3.78;;
33148;SDS011;19506;51.040;3.856;2022-08-21T10:02:28;20.63;;;3.47;;
33148;SDS011;19506;51.040;3.856;2022-08-21T10:07:29;17.50;;;4.43;;
33148;SDS011;19506;51.040;3.856;2022-08-21T10:10:00;26.13;;;3.78;;
33148;SDS011;19506;51.040;3.856;2022-08-21T10:12:42;18.85;;;4.93;;
33148;SDS011;19506;51.040;3.856;2022-08-21T10:16:30;18.70;;;4.50;;
33148;SDS011;19506;51.040;3.856;2022-08-21T10:21:28;14.45;;;3.60;;
33148;SDS011;19506;51.040;3.856;2022-08-21T10:29:50;21.48;;;3.80;;
33148;SDS011;19506;51.040;3.856;2022-08-21T10:32:27;17.73;;;3.95;;
33148;SDS011;19506;51.040;3.856;2022-08-21T10:46:12;23.95;;;4.03;;
33148;SDS011;19506;51.040;3.856;2022-08-21T10:48:51;16.25;;;3.05;;
33148;SDS011;19506;51.040;3.856;2022-08-21T10:56:49;13.25;;;2.70;;
33148;SDS011;19506;51.040;3.856;2022-08-21T11:02:20;23.20;;;2.67;;
33148;SDS011;19506;51.040;3.856;2022-08-21T11:04:55;12.13;;;3.03;;
33148;SDS011;19506;51.040;3.856;2022-08-21T11:10:00;14.45;;;3.00;;
33148;SDS011;19506;51.040;3.856;2022-08-21T11:12:49;17.38;;;3.58;;
33148;SDS011;19506;51.040;3.856;2022-08-21T11:18:15;11.70;;;2.60;;
33148;SDS011;19506;51.040;3.856;2022-08-21T11:23:53;14.35;;;2.97;;
33148;SDS011;19506;51.040;3.856;2022-08-21T11:26:39;10.10;;;2.65;;
33148;SDS011;19506;51.040;3.856;2022-08-21T11:29:16;10.57;;;3.78;;
33148;SDS011;19506;51.040;3.856;2022-08-21T11:43:09;8.95;;;2.13;;
33148;SDS011;19506;51.040;3.856;2022-08-21T11:45:47;14.63;;;2.50;;
33148;SDS011;19506;51.040;3.856;2022-08-21T11:48:38;10.63;;;2.70;;
33148;SDS011;19506;51.040;3.856;2022-08-21T11:51:22;9.38;;;2.65;;
33148;SDS011;19506;51.040;3.856;2022-08-21T11:54:01;18.02;;;2.78;;
33148;SDS011;19506;51.040;3.856;2022-08-21T11:56:37;11.88;;;1.73;;
33148;SDS011;19506;51.040;3.856;2022-08-21T11:59:28;14.95;;;3.03;;
33148;SDS011;19506;51.040;3.856;2022-08-21T12:02:12;27.45;;;2.60;;
33148;SDS011;19506;51.040;3.856;2022-08-21T12:05:23;22.58;;;2.60;;
33148;SDS011;19506;51.040;3.856;2022-08-21T12:07:36;13.52;;;2.78;;
33148;SDS011;19506;51.040;3.856;2022-08-21T12:10:09;19.00;;;2.90;;
33148;SDS011;19506;51.040;3.856;2022-08-21T12:12:37;12.27;;;2.83;;
33148;SDS011;19506;51.040;3.856;2022-08-21T12:15:16;12.63;;;2.97;;
33148;SDS011;19506;51.040;3.856;2022-08-21T12:23:02;16.95;;;2.75;;
33148;SDS011;19506;51.040;3.856;2022-08-21T12:29:13;19.58;;;3.25;;
33148;SDS011;19506;51.040;3.856;2022-08-21T12:34:27;12.30;;;2.42;;
33148;SDS011;19506;51.040;3.856;2022-08-21T12:37:01;14.27;;;2.78;;
33148;SDS011;19506;51.040;3.856;2022-08-21T12:39:36;9.25;;;2.88;;
33148;SDS011;19506;51.040;3.856;2022-08-21T12:42:15;18.73;;;3.30;;
33148;SDS011;19506;51.040;3.856;2022-08-21T12:44:44;10.88;;;2.55;;
33148;SDS011;19506;51.040;3.856;2022-08-21T12:50:29;13.63;;;2.65;;
33148;SDS011;19506;51.040;3.856;2022-08-21T12:53:25;11.38;;;2.50;;
33148;SDS011;19506;51.040;3.856;2022-08-21T12:56:09;13.13;;;2.63;;
33148;SDS011;19506;51.040;3.856;2022-08-21T12:58:39;9.25;;;3.20;;
33148;SDS011;19506;51.040;3.856;2022-08-21T13:01:15;11.85;;;3.08;;
33148;SDS011;19506;51.040;3.856;2022-08-21T13:03:49;9.52;;;2.50;;
33148;SDS011;19506;51.040;3.856;2022-08-21T13:06:17;6.25;;;2.20;;
33148;SDS011;19506;51.040;3.856;2022-08-21T13:08:45;16.27;;;3.72;;
33148;SDS011;19506;51.040;3.856;2022-08-21T13:11:14;9.25;;;2.42;;
33148;SDS011;19506;51.040;3.856;2022-08-21T13:13:42;10.70;;;2.95;;
33148;SDS011;19506;51.040;3.856;2022-08-21T13:16:12;16.13;;;3.38;;
33148;SDS011;19506;51.040;3.856;2022-08-21T13:21:44;10.43;;;2.83;;
33148;SDS011;19506;51.040;3.856;2022-08-21T13:24:32;8.73;;;2.30;;
33148;SDS011;19506;51.040;3.856;2022-08-21T13:27:00;14.52;;;4.53;;
33148;SDS011;19506;51.040;3.856;2022-08-21T13:29:30;10.70;;;2.60;;
33148;SDS011;19506;51.040;3.856;2022-08-21T13:32:01;11.90;;;2.58;;
33148;SDS011;19506;51.040;3.856;2022-08-21T13:34:35;11.18;;;2.55;;
33148;SDS011;19506;51.040;3.856;2022-08-21T13:37:06;13.00;;;2.38;;
33148;SDS011;19506;51.040;3.856;2022-08-21T13:39:33;14.38;;;2.75;;
33148;SDS011;19506;51.040;3.856;2022-08-21T13:42:01;9.82;;;2.67;;
33148;SDS011;19506;51.040;3.856;2022-08-21T13:44:39;13.85;;;2.55;;
33148;SDS011;19506;51.040;3.856;2022-08-21T13:47:06;11.10;;;2.45;;
33148;SDS011;19506;51.040;3.856;2022-08-21T13:49:36;10.63;;;2.05;;
33148;SDS011;19506;51.040;3.856;2022-08-21T13:52:13;11.98;;;3.42;;
33148;SDS011;19506;51.040;3.856;2022-08-21T13:54:51;14.63;;;2.60;;
33148;SDS011;19506;51.040;3.856;2022-08-21T14:02:43;8.85;;;2.78;;
33148;SDS011;19506;51.040;3.856;2022-08-21T14:05:26;12.00;;;2.60;;
33148;SDS011;19506;51.040;3.856;2022-08-21T14:10:48;7.60;;;2.08;;
33148;SDS011;19506;51.040;3.856;2022-08-21T14:16:00;7.82;;;1.92;;
33148;SDS011;19506;51.040;3.856;2022-08-21T14:18:27;9.32;;;2.90;;
33148;SDS011;19506;51.040;3.856;2022-08-21T14:21:04;11.75;;;3.05;;
33148;SDS011;19506;51.040;3.856;2022-08-21T14:23:34;8.10;;;2.28;;
33148;SDS011;19506;51.040;3.856;2022-08-21T14:26:01;10.38;;;2.95;;
33148;SDS011;19506;51.040;3.856;2022-08-21T14:30:55;8.63;;;2.47;;
33148;SDS011;19506;51.040;3.856;2022-08-21T14:33:26;11.55;;;2.67;;
33148;SDS011;19506;51.040;3.856;2022-08-21T14:35:54;8.57;;;2.40;;
33148;SDS011;19506;51.040;3.856;2022-08-21T14:38:21;10.18;;;1.58;;
33148;SDS011;19506;51.040;3.856;2022-08-21T14:40:50;12.90;;;2.47;;
33148;SDS011;19506;51.040;3.856;2022-08-21T14:43:18;13.07;;;2.33;;
33148;SDS011;19506;51.040;3.856;2022-08-21T14:45:44;10.98;;;2.10;;
33148;SDS011;19506;51.040;3.856;2022-08-21T14:48:10;8.55;;;2.10;;
33148;SDS011;19506;51.040;3.856;2022-08-21T14:50:36;10.73;;;3.22;;
33148;SDS011;19506;51.040;3.856;2022-08-21T14:53:02;7.53;;;2.08;;
33148;SDS011;19506;51.040;3.856;2022-08-21T14:55:29;9.13;;;2.15;;
33148;SDS011;19506;51.040;3.856;2022-08-21T14:58:16;11.98;;;2.20;;
33148;SDS011;19506;51.040;3.856;2022-08-21T15:00:42;11.23;;;2.03;;
33148;SDS011;19506;51.040;3.856;2022-08-21T15:03:09;14.18;;;2.65;;
33148;SDS011;19506;51.040;3.856;2022-08-21T15:05:35;10.23;;;2.03;;
33148;SDS011;19506;51.040;3.856;2022-08-21T15:08:00;7.65;;;1.75;;
33148;SDS011;19506;51.040;3.856;2022-08-21T15:10:26;13.10;;;2.00;;
33148;SDS011;19506;51.040;3.856;2022-08-21T15:12:54;7.50;;;2.80;;
33148;SDS011;19506;51.040;3.856;2022-08-21T15:15:20;18.10;;;2.38;;
33148;SDS011;19506;51.040;3.856;2022-08-21T15:17:46;11.30;;;2.28;;
33148;SDS011;19506;51.040;3.856;2022-08-21T15:20:12;7.20;;;1.90;;
33148;SDS011;19506;51.040;3.856;2022-08-21T15:22:38;12.82;;;2.85;;
33148;SDS011;19506;51.040;3.856;2022-08-21T15:25:04;12.57;;;2.10;;
33148;SDS011;19506;51.040;3.856;2022-08-21T15:27:30;13.02;;;2.63;;
33148;SDS011;19506;51.040;3.856;2022-08-21T15:29:56;8.13;;;2.50;;
33148;SDS011;19506;51.040;3.856;2022-08-21T15:32:25;11.63;;;2.83;;
33148;SDS011;19506;51.040;3.856;2022-08-21T15:34:54;7.47;;;1.83;;
33148;SDS011;19506;51.040;3.856;2022-08-21T15:37:21;9.35;;;2.25;;
33148;SDS011;19506;51.040;3.856;2022-08-21T15:39:48;5.60;;;2.20;;
33148;SDS011;19506;51.040;3.856;2022-08-21T15:42:14;15.05;;;2.15;;
33148;SDS011;19506;51.040;3.856;2022-08-21T15:44:40;10.48;;;2.33;;
33148;SDS011;19506;51.040;3.856;2022-08-21T15:47:12;12.20;;;2.53;;
33148;SDS011;19506;51.040;3.856;2022-08-21T15:49:43;10.63;;;2.33;;
33148;SDS011;19506;51.040;3.856;2022-08-21T15:52:13;7.80;;;1.95;;
33148;SDS011;19506;51.040;3.856;2022-08-21T15:54:41;9.80;;;2.50;;
33148;SDS011;19506;51.040;3.856;2022-08-21T15:57:08;4.85;;;2.03;;
33148;SDS011;19506;51.040;3.856;2022-08-21T15:59:38;11.95;;;2.75;;
33148;SDS011;19506;51.040;3.856;2022-08-21T16:02:07;8.65;;;2.50;;
33148;SDS011;19506;51.040;3.856;2022-08-21T16:04:38;10.27;;;3.13;;
33148;SDS011;19506;51.040;3.856;2022-08-21T16:07:04;11.88;;;2.42;;
33148;SDS011;19506;51.040;3.856;2022-08-21T16:09:29;12.15;;;3.03;;
33148;SDS011;19506;51.040;3.856;2022-08-21T16:11:55;11.13;;;3.00;;
33148;SDS011;19506;51.040;3.856;2022-08-21T16:14:21;24.27;;;3.42;;
33148;SDS011;19506;51.040;3.856;2022-08-21T16:16:47;17.13;;;4.20;;
33148;SDS011;19506;51.040;3.856;2022-08-21T16:19:12;18.42;;;3.92;;
33148;SDS011;19506;51.040;3.856;2022-08-21T16:21:39;9.63;;;2.55;;
33148;SDS011;19506;51.040;3.856;2022-08-21T16:24:05;12.40;;;3.15;;
33148;SDS011;19506;51.040;3.856;2022-08-21T16:26:30;12.23;;;2.75;;
33148;SDS011;19506;51.040;3.856;2022-08-21T16:28:57;15.70;;;3.25;;
33148;SDS011;19506;51.040;3.856;2022-08-21T16:31:25;19.58;;;4.57;;
33148;SDS011;19506;51.040;3.856;2022-08-21T16:33:52;13.45;;;2.63;;
33148;SDS011;19506;51.040;3.856;2022-08-21T16:36:20;13.43;;;2.45;;